Авиационная погода в Елизово

СКИДКИ НА СМАРТФОНЫ!

Регион: 
Погода METAR: 
UHPP 091600Z 15006MPS 8000 -SHRA SCT008 OVC031CB 12/12 Q1014 R16R/CLRD70 NOSIG RMK QFE757/1010
Время наблюдения
2022-08-09T16:00:00Z
Температура C
12.0
Точка росы
12.0
Направление ветра
150
Скорость ветра (узлы)
12
Метео видимость
4.97
Облачность
SCT
OVC
Нижняя граница облачности (футы)
800
3100
Явления погоды
-SHRA
Условия полета
MVFR
Аэропорт подробнее: 
SCT – разбросанная отдельная облачность; OVC – сплошная облачность;
-SHRA - слабый ливневой дождь;

Скидки на навигаторы!